Hill Air Force Base
KHIF : now visible

Airfield :











YOU CAN JOIN US ON...

 
LOGIN :

Register | Disclaimer

   EN    FR    IT 

 









Legend :    VFR   Marginal VFR   IFR   Intensive IFR   Very Intensive IFR
Visi :
Ceiling :
>= 8 km
>= 3000ft
5 to 8 km
1000 to 3000 ft
1500m to 5 km
500 to 1000 ft
800 to 1500m
200 to 500 ft
< 800m
< 200 ft
Symbols :   Thunderstorms  Fog  Heavy snow  Heavy precipitations  Wind > 20 kt






- Airport Elevation : 4789 ft


KHIF - Hill Air Force Base

CURRENT METAR :
  • 051558Z 11014KT 10SM FEW180 24/04 A3004 RMK AO2A SLP109 T02400044

EXPIRED METARs :
  • 051458Z 11014KT 10SM CLR 21/04 A3004 RMK AO2A SLP109 MIDFLD
  • 051358Z AUTO 10013KT 10SM SCT150 20/03 A3003 RMK AO2 SLP103 T02020025

TAF TAF KHIF
Valid from the 05 at 13:00 until the 06 at 19:00 UTC


051300Z 0513/0619 11012G18KT 9999 SCT150 QNH3001INS
BECMG 0517/0518 22009KT 9999 SCT150 QNH3000INS
BECMG 0602/0603 11010G20KT 9999 BKN150 QNH2990INS TX36/0521Z TN19/0513Z
KZLC FIR / North America



MET'MAP, your aeronautical weather chart ! - Copyright ORBIFLY December 2007 - Disclaimer

ORBIFLY MET'MAP TEAM :

Programming & Development : Alexandra Zaïnal
Concept & original design : Baudouin d'Aumeries
Assistance for programming : Marc-Olivier Méhu
Technical & hardware support : Manuel Goepfert

Contact : metmap@orbifly.com




SOURCES & CREDITS :

   NOAA       Earth
Advisory